• Join FlightAware (Why Join?)
  • Login
  • US Flag 
05:56AM EDT


 

Airport Tracker/Info


-or-


 

Live Flight TrackerFlight Track Log ✈ EJM552 ✈ 27-Sep-2013 ✈ KLCH - KDPA

Flight Track Log - Related Links

Times and Time Zones

All times are in EDT time to prevent confusion due to time zone crossing. See the EJM552 flight status page for this flight to view local times or setup timezone preferences in your user account.

Time Position Orientation Groundspeed Altitude Reporting Facility
EDT Latitude Longitude Course Direction KTS MPH feet Rate Location/Type
08:45AM 30.0447 -93.1514 134° Southeast 248 285 4,700  Level Houston Center
08:46AM 30.1017 -93.1011 37° Northeast 285 328 8,100 2,760 Climbing Houston Center
08:47AM 30.1792 -93.0728 18° North 292 336 10,400 1,980 Climbing Houston Center
08:48AM 30.2694 -93.0406 17° North 332 382 12,200 1,740 Climbing Houston Center
08:49AM 30.3661 -93.0058 17° North 361 415 14,100 1,800 Climbing Houston Center
08:50AM 30.4644 -92.9708 17° North 371 427 16,000 2,040 Climbing Houston Center
08:51AM 30.5850 -92.9264 18° North 379 436 18,300 1,980 Climbing Houston Center
08:52AM 30.6864 -92.8897 17° North 381 438 20,200 1,680 Climbing Houston Center
08:53AM 30.7847 -92.8561 16° North 387 445 21,800 1,500 Climbing Houston Center
08:54AM 30.8928 -92.8178 17° North 398 458 23,300 1,500 Climbing Houston Center
08:56AM 31.0086 -92.7753 17° North 410 472 24,900 1,440 Climbing Houston Center
08:57AM 31.1208 -92.7358 17° North 417 480 26,300 1,380 Climbing Houston Center
08:58AM 31.2556 -92.6894 16° North 420 483 27,800 1,200 Climbing Houston Center
08:59AM 31.3714 -92.6439 19° North 434 499 28,800 960 Climbing Houston Center
09:00AM 31.4892 -92.6058 15° North 440 506 29,800 960 Climbing Houston Center
09:01AM 31.6039 -92.5625 18° North 436 502 30,800 960 Climbing Houston Center
09:02AM 31.7189 -92.5194 18° North 435 501 31,800 960 Climbing Houston Center
09:03AM 31.8342 -92.4753 18° North 435 501 32,800 540 Climbing Houston Center
09:04AM 31.9528 -92.4322 17° North 441 507 33,000 60 Climbing Houston Center
09:05AM 32.1006 -92.3772 17° North 461 531 33,000  Level Houston Center
09:06AM 32.2211 -92.3292 19° North 460 529 33,000  Level Houston Center
09:07AM 32.3439 -92.2856 17° North 460 529 33,000  Level Houston Center
09:07AM 32.4003 -92.2664 16° North 453 521 33,000  Level Fort Worth Center
09:08AM 32.5258 -92.2197 17° North 453 521 33,000  Level Fort Worth Center
09:09AM 32.6469 -92.1733 18° North 453 521 33,000 360 Level Fort Worth Center
09:10AM 32.7744 -92.1264 17° North 458 527 33,800 840 Climbing Fort Worth Center
09:11AM 32.8875 -92.0864 17° North 454 522 34,600 960 Climbing Memphis Center
09:12AM 32.9925 -92.0464 18° North 442 509 35,600 1,140 Climbing Memphis Center
09:13AM 33.1183 -91.9992 17° North 431 496 36,900 1,200 Climbing Memphis Center
09:14AM 33.2317 -91.9567 17° North 424 488 38,100 1,080 Climbing Memphis Center
09:15AM 33.3386 -91.9164 17° North 430 495 39,100 1,080 Climbing Memphis Center
09:16AM 33.4456 -91.8758 18° North 431 496 40,300 900 Climbing Memphis Center
09:17AM 33.5506 -91.8328 19° North 413 475 41,000 300 Climbing Memphis Center
09:18AM 33.6636 -91.7922 17° North 406 467 41,000  Level Memphis Center
09:19AM 33.7769 -91.7492 18° North 411 473 41,000  Level Memphis Center
09:20AM 33.8817 -91.7058 19° North 419 482 41,000  Level Memphis Center
09:21AM 34.0031 -91.6625 16° North 414 476 41,000  Level Memphis Center
09:22AM 34.1183 -91.6192 17° North 429 494 41,000  Level Memphis Center
09:23AM 34.2314 -91.5756 18° North 429 494 41,000  Level Memphis Center
09:24AM 34.3592 -91.5272 17° North 430 495 41,000  Level Memphis Center
09:25AM 34.4744 -91.4808 18° North 430 495 41,000  Level Memphis Center
09:26AM 34.5917 -91.4369 17° North 430 495 41,000  Level Memphis Center
09:27AM 34.7047 -91.3903 19° North 430 495 41,000  Level Memphis Center
09:28AM 34.8178 -91.3461 18° North 425 489 41,000  Level Memphis Center
09:29AM 34.9328 -91.2994 18° North 431 496 41,000  Level Memphis Center
09:30AM 35.0353 -91.2625 16° North 425 489 41,000  Level Memphis Center
09:31AM 35.1483 -91.2156 19° North 425 489 41,000  Level Memphis Center
09:32AM 35.2614 -91.1683 19° North 425 489 41,000  Level Memphis Center
09:33AM 35.3764 -91.1236 18° North 425 489 41,000  Level Memphis Center
09:34AM 35.4892 -91.0786 18° North 425 489 41,000  Level Memphis Center
09:35AM 35.6022 -91.0336 18° North 425 489 41,000  Level Memphis Center
09:36AM 35.7067 -90.9886 19° North 423 487 41,000  Level Memphis Center
09:37AM 35.8194 -90.9433 18° North 418 481 41,000  Level Memphis Center
09:38AM 35.9364 -90.8981 17° North 418 481 41,000  Level Memphis Center
09:39AM 36.0492 -90.8525 18° North 425 489 41,000  Level Memphis Center
09:40AM 36.1619 -90.8044 19° North 425 489 41,000  Level Memphis Center
09:41AM 36.2769 -90.7611 17° North 425 489 41,000  Level Memphis Center
09:42AM 36.3875 -90.7153 18° North 425 489 41,000  Level Memphis Center
09:43AM 36.5042 -90.6694 18° North 425 489 41,000  Level Memphis Center
09:44AM 36.6253 -90.6181 19° North 425 489 41,000  Level Memphis Center
09:45AM 36.7381 -90.5719 18° North 425 489 41,000  Level Memphis Center
09:46AM 36.8525 -90.5228 19° North 425 489 41,000  Level Memphis Center
09:47AM 36.9603 -90.4739 20° North 431 496 41,000  Level Kansas City Center
09:48AM 37.0747 -90.4256 19° North 431 496 41,000  Level Kansas City Center
09:49AM 37.1903 -90.3772 18° North 434 499 41,000  Level Kansas City Center
09:50AM 37.3042 -90.3294 18° North 432 497 41,000  Level Kansas City Center
09:51AM 37.4333 -90.2739 19° North 432 497 41,000  Level Kansas City Center
09:52AM 37.5469 -90.2258 19° North 432 497 41,000  Level Kansas City Center
09:53AM 37.6600 -90.1756 19° North 432 497 41,000  Level Kansas City Center
09:54AM 37.7739 -90.1244 20° North 434 499 41,000  Level Kansas City Center
09:55AM 37.9089 -90.0672 18° North 430 495 41,000  Level Kansas City Center
09:57AM 38.0261 -90.0158 19° North 433 498 41,000  Level Kansas City Center
09:58AM 38.1356 -89.9672 19° North 432 497 41,000  Level Kansas City Center
09:59AM 38.2497 -89.9150 20° North 437 503 41,000 -480 Level Kansas City Center
10:00AM 38.3631 -89.8656 19° North 435 501 40,100 -1,200 Descending Kansas City Center
10:01AM 38.4983 -89.8061 19° North 433 498 38,600 -1,320 Descending Kansas City Center
10:02AM 38.6094 -89.7556 20° North 430 495 37,400 -1,140 Descending Kansas City Center
10:03AM 38.7258 -89.7033 19° North 438 504 36,300 -1,200 Descending Kansas City Center
10:04AM 38.8622 -89.6433 19° North 449 517 35,000 -660 Descending Kansas City Center
10:05AM 38.9811 -89.5900 19° North 453 521 35,000  Level Kansas City Center
10:06AM 39.1086 -89.5308 20° North 453 521 35,000  Level Kansas City Center
10:07AM 39.2231 -89.4783 20° North 453 521 35,000 -540 Level Kansas City Center
10:08AM 39.3425 -89.4225 20° North 456 525 34,000 -1,020 Descending Kansas City Center
10:09AM 39.4639 -89.3686 19° North 461 531 33,000 -540 Descending Kansas City Center
10:10AM 39.5839 -89.3136 19° North 461 531 33,000 -300 Level Kansas City Center
10:11AM 39.7072 -89.2567 20° North 460 529 32,500 -1,680 Descending Kansas City Center
10:12AM 39.8522 -89.1881 20° North 461 531 29,600 -1,740 Descending Kansas City Center
10:13AM 39.9744 -89.1314 20° North 466 536 29,000 -360 Descending Kansas City Center
10:14AM 40.0689 -89.0914 18° North 462 532 29,000 -600 Level Chicago Center
10:15AM 40.1947 -89.0694 North 473 544 27,900 -1,500 Descending Chicago Center
10:16AM 40.3514 -89.0797 357° North 473 544 26,000 -1,740 Descending Chicago Center
10:17AM 40.4714 -89.0292 18° North 479 551 24,400 -2,280 Descending Chicago Center
10:18AM 40.5800 -88.9378 33° Northeast 468 539 21,400 -2,940 Descending Chicago Center
10:19AM 40.6975 -88.8394 32° Northeast 453 521 18,400 -2,760 Descending Chicago Center
10:20AM 40.7953 -88.7578 32° Northeast 424 488 15,700 -2,220 Descending Chicago Center
10:21AM 40.8967 -88.7233 14° North 384 442 13,800 -1,800 Descending Chicago Center
10:22AM 41.0061 -88.7069 North 394 453 12,000 -1,380 Descending Chicago Center
10:23AM 41.1136 -88.6897 North 388 447 11,000 -540 Descending Chicago Center
10:24AM 41.2339 -88.6714 North 362 417 11,000 -300 Level Chicago Center
10:25AM 41.3297 -88.6581 North 349 402 10,400 -1,080 Descending Chicago Center
10:26AM 41.4144 -88.6447 North 302 348 8,800 -1,560 Descending Chicago Center
10:27AM 41.4950 -88.6331 North 290 334 7,200 -1,500 Descending Chicago Center
10:28AM 41.5764 -88.6203 North 293 337 5,700 -1,080 Descending Chicago Center
10:29AM 41.6447 -88.5725 28° Northeast 286 329 5,000 -780 Descending Chicago Center
10:31AM 41.7139 -88.4883 42° Northeast 280 322 4,200 -960 Descending Chicago Center
10:32AM 41.7700 -88.4175 43° Northeast 277 319 3,100 -600 Descending Chicago Center
10:33AM 41.8239 -88.3525 42° Northeast 267 307 3,000 -60 Descending Chicago Center
10:34AM 41.8775 -88.3208 24° Northeast 235 270 3,000  Level Chicago Center
10:35AM 41.9333 -88.3192 North 208 239 3,000 -360 Level Chicago Center
10:36AM 41.9839 -88.3119 North 193 222 2,300 -600 Descending Chicago Center
10:37AM 41.9767 -88.2431 98° East 176 203 1,800 -540 Descending Chicago Center
10:38AM 41.9375 -88.2400 177° South 158 182 1,200 -360 Descending Chicago Center
10:39AM 41.9019 -88.2567 199° South 154 177 1,100 -120 Descending Chicago Center